Forside
METAR-TAF:

METAR-TAF

Lufthavne :

Burnett County Airport

Siren, Wisconsin, USA

Breddekreds: 45-49-22N, længdekreds: 092-22-21W, højde: 301 m

Aktuelle vejr

Denne rapport blev lavet for 20 minutter siden, kl. 09:35 UTC
Vind stille
Temperatur -1°C
Fugtighed 100%
Tryk 1020 hPa
Overskyet i en højde af 100 ft
rimtåge

METAR: KRZN 230935Z AUTO 00000KT M1/4SM FZFG OVC001 M01/M01 A3012 RMK AO2 T10121012

Tid: 04:55 (09:55 UTC)


TAF: fraværende

Vejrobservationer og prognoser fra mere end 4000 lufthavne (METAR og TAF).

De gule og røde prikker repræsenterer de meteorologiske stationer.

Flyt musen over at se navnet på stationen.

Så klik over at se vejr observationer og prognoser.

At skifte det kort: Klik på de grønne knapper med et sort kors for at zoome ind; på den grønne knap med en bindestreg for at zoome ud; eller på de grønne pile for tilstødende kort.


METAR-TAF: